sensor_id;sensor_type;location;lat;lon;timestamp;P1;durP1;ratioP1;P2;durP2;ratioP2
71696;SDS011;68167;59.120;37.898;2023-03-14T00:01:19;9.90;;;2.90;;
71696;SDS011;68167;59.120;37.898;2023-03-14T00:03:46;16.17;;;3.93;;
71696;SDS011;68167;59.120;37.898;2023-03-14T00:06:13;12.20;;;2.70;;
71696;SDS011;68167;59.120;37.898;2023-03-14T00:08:40;9.93;;;2.80;;
71696;SDS011;68167;59.120;37.898;2023-03-14T00:11:07;9.20;;;2.33;;
71696;SDS011;68167;59.120;37.898;2023-03-14T00:13:36;11.17;;;2.93;;
71696;SDS011;68167;59.120;37.898;2023-03-14T00:16:03;9.10;;;2.43;;
71696;SDS011;68167;59.120;37.898;2023-03-14T00:18:34;8.40;;;2.67;;
71696;SDS011;68167;59.120;37.898;2023-03-14T00:21:01;18.40;;;3.67;;
71696;SDS011;68167;59.120;37.898;2023-03-14T00:23:31;17.83;;;3.83;;
71696;SDS011;68167;59.120;37.898;2023-03-14T00:26:03;10.23;;;3.80;;
71696;SDS011;68167;59.120;37.898;2023-03-14T00:28:31;7.10;;;2.63;;
71696;SDS011;68167;59.120;37.898;2023-03-14T00:30:57;7.33;;;2.27;;
71696;SDS011;68167;59.120;37.898;2023-03-14T00:33:24;8.30;;;2.40;;
71696;SDS011;68167;59.120;37.898;2023-03-14T00:35:54;7.13;;;2.27;;
71696;SDS011;68167;59.120;37.898;2023-03-14T00:38:22;5.43;;;1.90;;
71696;SDS011;68167;59.120;37.898;2023-03-14T00:40:50;6.20;;;2.00;;
71696;SDS011;68167;59.120;37.898;2023-03-14T00:43:18;4.47;;;2.00;;
71696;SDS011;68167;59.120;37.898;2023-03-14T00:45:48;5.20;;;1.83;;
71696;SDS011;68167;59.120;37.898;2023-03-14T00:48:16;3.67;;;1.53;;
71696;SDS011;68167;59.120;37.898;2023-03-14T00:50:43;6.43;;;2.30;;
71696;SDS011;68167;59.120;37.898;2023-03-14T00:53:10;6.63;;;2.10;;
71696;SDS011;68167;59.120;37.898;2023-03-14T00:55:37;3.70;;;1.47;;
71696;SDS011;68167;59.120;37.898;2023-03-14T00:58:05;4.57;;;1.40;;
71696;SDS011;68167;59.120;37.898;2023-03-14T01:00:32;2.50;;;1.40;;
71696;SDS011;68167;59.120;37.898;2023-03-14T01:02:59;6.47;;;1.53;;
71696;SDS011;68167;59.120;37.898;2023-03-14T01:05:27;5.40;;;1.80;;
71696;SDS011;68167;59.120;37.898;2023-03-14T01:07:54;2.57;;;0.93;;
71696;SDS011;68167;59.120;37.898;2023-03-14T01:10:20;2.90;;;1.10;;
71696;SDS011;68167;59.120;37.898;2023-03-14T01:12:47;2.80;;;1.17;;
71696;SDS011;68167;59.120;37.898;2023-03-14T01:15:14;1.67;;;1.00;;
71696;SDS011;68167;59.120;37.898;2023-03-14T01:17:41;2.13;;;0.83;;
71696;SDS011;68167;59.120;37.898;2023-03-14T01:20:08;1.80;;;1.20;;
71696;SDS011;68167;59.120;37.898;2023-03-14T01:22:38;1.67;;;0.70;;
71696;SDS011;68167;59.120;37.898;2023-03-14T01:25:06;2.73;;;0.80;;
71696;SDS011;68167;59.120;37.898;2023-03-14T01:27:34;1.37;;;0.80;;
71696;SDS011;68167;59.120;37.898;2023-03-14T01:30:01;1.17;;;0.60;;
71696;SDS011;68167;59.120;37.898;2023-03-14T01:32:30;1.57;;;0.80;;
71696;SDS011;68167;59.120;37.898;2023-03-14T01:34:56;2.60;;;0.87;;
71696;SDS011;68167;59.120;37.898;2023-03-14T01:37:23;1.83;;;0.80;;
71696;SDS011;68167;59.120;37.898;2023-03-14T01:39:49;2.43;;;1.07;;
71696;SDS011;68167;59.120;37.898;2023-03-14T01:42:18;1.93;;;0.83;;
71696;SDS011;68167;59.120;37.898;2023-03-14T01:44:49;2.37;;;1.17;;
71696;SDS011;68167;59.120;37.898;2023-03-14T01:47:23;1.47;;;0.80;;
71696;SDS011;68167;59.120;37.898;2023-03-14T01:49:53;4.10;;;0.80;;
71696;SDS011;68167;59.120;37.898;2023-03-14T01:52:29;4.33;;;0.70;;
71696;SDS011;68167;59.120;37.898;2023-03-14T01:55:00;1.30;;;0.80;;
71696;SDS011;68167;59.120;37.898;2023-03-14T01:57:37;2.90;;;0.80;;
71696;SDS011;68167;59.120;37.898;2023-03-14T02:00:09;2.60;;;0.73;;
71696;SDS011;68167;59.120;37.898;2023-03-14T02:02:43;1.07;;;0.70;;
71696;SDS011;68167;59.120;37.898;2023-03-14T02:05:14;3.30;;;0.93;;
71696;SDS011;68167;59.120;37.898;2023-03-14T02:07:49;1.87;;;0.87;;
71696;SDS011;68167;59.120;37.898;2023-03-14T02:10:25;2.67;;;0.80;;
71696;SDS011;68167;59.120;37.898;2023-03-14T02:13:03;2.87;;;0.83;;
71696;SDS011;68167;59.120;37.898;2023-03-14T02:15:37;3.00;;;0.67;;
71696;SDS011;68167;59.120;37.898;2023-03-14T02:18:17;1.33;;;0.70;;
71696;SDS011;68167;59.120;37.898;2023-03-14T02:21:24;2.23;;;0.70;;
71696;SDS011;68167;59.120;37.898;2023-03-14T02:24:27;1.10;;;0.60;;
71696;SDS011;68167;59.120;37.898;2023-03-14T02:27:15;2.80;;;0.90;;
71696;SDS011;68167;59.120;37.898;2023-03-14T02:29:55;2.57;;;0.63;;
71696;SDS011;68167;59.120;37.898;2023-03-14T02:32:27;2.00;;;0.43;;
71696;SDS011;68167;59.120;37.898;2023-03-14T02:34:58;1.00;;;0.60;;
71696;SDS011;68167;59.120;37.898;2023-03-14T02:37:32;2.43;;;0.80;;
71696;SDS011;68167;59.120;37.898;2023-03-14T02:40:24;1.87;;;0.70;;
71696;SDS011;68167;59.120;37.898;2023-03-14T02:42:51;1.67;;;0.57;;
71696;SDS011;68167;59.120;37.898;2023-03-14T02:47:50;1.90;;;0.60;;
71696;SDS011;68167;59.120;37.898;2023-03-14T02:50:22;1.83;;;0.77;;
71696;SDS011;68167;59.120;37.898;2023-03-14T02:52:53;0.77;;;0.57;;
71696;SDS011;68167;59.120;37.898;2023-03-14T02:55:23;1.60;;;0.90;;
71696;SDS011;68167;59.120;37.898;2023-03-14T02:57:54;1.63;;;0.80;;
71696;SDS011;68167;59.120;37.898;2023-03-14T03:00:21;2.40;;;0.90;;
71696;SDS011;68167;59.120;37.898;2023-03-14T03:02:47;2.80;;;1.00;;
71696;SDS011;68167;59.120;37.898;2023-03-14T03:05:14;1.13;;;0.73;;
71696;SDS011;68167;59.120;37.898;2023-03-14T03:07:40;1.10;;;0.80;;
71696;SDS011;68167;59.120;37.898;2023-03-14T03:10:07;1.90;;;0.90;;
71696;SDS011;68167;59.120;37.898;2023-03-14T03:12:34;2.67;;;1.10;;
71696;SDS011;68167;59.120;37.898;2023-03-14T03:15:00;1.90;;;1.10;;
71696;SDS011;68167;59.120;37.898;2023-03-14T03:17:27;1.87;;;1.17;;
71696;SDS011;68167;59.120;37.898;2023-03-14T03:19:53;10.10;;;2.40;;
71696;SDS011;68167;59.120;37.898;2023-03-14T03:22:19;3.63;;;1.67;;
71696;SDS011;68167;59.120;37.898;2023-03-14T03:24:45;6.00;;;2.20;;
71696;SDS011;68167;59.120;37.898;2023-03-14T03:27:12;4.00;;;1.90;;
71696;SDS011;68167;59.120;37.898;2023-03-14T03:29:38;7.13;;;2.27;;
71696;SDS011;68167;59.120;37.898;2023-03-14T03:32:04;8.33;;;2.70;;
71696;SDS011;68167;59.120;37.898;2023-03-14T03:34:31;3.00;;;1.37;;
71696;SDS011;68167;59.120;37.898;2023-03-14T03:36:57;3.70;;;1.80;;
71696;SDS011;68167;59.120;37.898;2023-03-14T03:39:25;3.60;;;1.10;;
71696;SDS011;68167;59.120;37.898;2023-03-14T03:41:51;2.80;;;1.50;;
71696;SDS011;68167;59.120;37.898;2023-03-14T03:44:18;3.30;;;1.43;;
71696;SDS011;68167;59.120;37.898;2023-03-14T03:46:44;2.23;;;1.00;;
71696;SDS011;68167;59.120;37.898;2023-03-14T03:49:11;2.53;;;1.10;;
71696;SDS011;68167;59.120;37.898;2023-03-14T03:51:37;3.20;;;1.10;;
71696;SDS011;68167;59.120;37.898;2023-03-14T03:54:05;2.13;;;1.40;;
71696;SDS011;68167;59.120;37.898;2023-03-14T03:56:33;2.40;;;1.23;;
71696;SDS011;68167;59.120;37.898;2023-03-14T03:59:00;1.53;;;1.03;;
71696;SDS011;68167;59.120;37.898;2023-03-14T04:01:26;1.23;;;0.63;;
71696;SDS011;68167;59.120;37.898;2023-03-14T04:03:56;2.77;;;0.90;;
71696;SDS011;68167;59.120;37.898;2023-03-14T04:06:22;1.77;;;1.10;;
71696;SDS011;68167;59.120;37.898;2023-03-14T04:08:53;1.33;;;0.77;;
71696;SDS011;68167;59.120;37.898;2023-03-14T04:11:46;2.23;;;1.30;;
71696;SDS011;68167;59.120;37.898;2023-03-14T04:14:22;2.10;;;1.10;;
71696;SDS011;68167;59.120;37.898;2023-03-14T04:16:58;4.57;;;1.63;;
71696;SDS011;68167;59.120;37.898;2023-03-14T04:19:24;6.87;;;1.23;;
71696;SDS011;68167;59.120;37.898;2023-03-14T04:21:53;2.73;;;1.10;;
71696;SDS011;68167;59.120;37.898;2023-03-14T04:24:21;11.10;;;1.50;;
71696;SDS011;68167;59.120;37.898;2023-03-14T04:26:49;1.70;;;1.00;;
71696;SDS011;68167;59.120;37.898;2023-03-14T04:29:15;2.67;;;1.00;;
71696;SDS011;68167;59.120;37.898;2023-03-14T04:31:44;2.37;;;1.30;;
71696;SDS011;68167;59.120;37.898;2023-03-14T04:34:11;4.00;;;1.20;;
71696;SDS011;68167;59.120;37.898;2023-03-14T04:36:43;4.23;;;1.50;;
71696;SDS011;68167;59.120;37.898;2023-03-14T04:39:15;5.47;;;1.20;;
71696;SDS011;68167;59.120;37.898;2023-03-14T04:41:49;4.70;;;1.57;;
71696;SDS011;68167;59.120;37.898;2023-03-14T04:44:16;5.20;;;1.80;;
71696;SDS011;68167;59.120;37.898;2023-03-14T04:46:43;1.60;;;1.13;;
71696;SDS011;68167;59.120;37.898;2023-03-14T04:49:11;1.97;;;1.10;;
71696;SDS011;68167;59.120;37.898;2023-03-14T04:51:38;1.47;;;0.97;;
71696;SDS011;68167;59.120;37.898;2023-03-14T04:54:04;1.93;;;1.00;;
71696;SDS011;68167;59.120;37.898;2023-03-14T04:56:30;5.27;;;1.30;;
71696;SDS011;68167;59.120;37.898;2023-03-14T04:58:57;7.03;;;2.50;;
71696;SDS011;68167;59.120;37.898;2023-03-14T05:01:23;3.57;;;1.90;;
71696;SDS011;68167;59.120;37.898;2023-03-14T05:04:20;7.03;;;2.20;;
71696;SDS011;68167;59.120;37.898;2023-03-14T05:07:16;2.47;;;1.40;;
71696;SDS011;68167;59.120;37.898;2023-03-14T05:10:08;2.20;;;1.63;;
71696;SDS011;68167;59.120;37.898;2023-03-14T05:12:41;3.43;;;1.70;;
71696;SDS011;68167;59.120;37.898;2023-03-14T05:15:38;6.70;;;2.10;;
71696;SDS011;68167;59.120;37.898;2023-03-14T05:18:17;4.53;;;1.80;;
71696;SDS011;68167;59.120;37.898;2023-03-14T05:21:02;4.33;;;1.60;;
71696;SDS011;68167;59.120;37.898;2023-03-14T05:23:47;3.00;;;1.53;;
71696;SDS011;68167;59.120;37.898;2023-03-14T05:26:34;2.80;;;1.90;;
71696;SDS011;68167;59.120;37.898;2023-03-14T05:29:23;6.67;;;2.40;;
71696;SDS011;68167;59.120;37.898;2023-03-14T05:32:17;4.77;;;2.00;;
71696;SDS011;68167;59.120;37.898;2023-03-14T05:35:16;4.17;;;2.20;;
71696;SDS011;68167;59.120;37.898;2023-03-14T05:38:07;3.67;;;2.33;;
71696;SDS011;68167;59.120;37.898;2023-03-14T05:40:52;7.87;;;2.53;;
71696;SDS011;68167;59.120;37.898;2023-03-14T05:43:41;5.17;;;2.97;;
71696;SDS011;68167;59.120;37.898;2023-03-14T05:46:21;3.87;;;2.53;;
71696;SDS011;68167;59.120;37.898;2023-03-14T05:48:54;4.53;;;2.57;;
71696;SDS011;68167;59.120;37.898;2023-03-14T05:51:46;21.53;;;3.43;;
71696;SDS011;68167;59.120;37.898;2023-03-14T05:54:25;6.80;;;2.90;;
71696;SDS011;68167;59.120;37.898;2023-03-14T05:57:04;9.77;;;2.90;;
71696;SDS011;68167;59.120;37.898;2023-03-14T05:59:49;6.87;;;4.00;;
71696;SDS011;68167;59.120;37.898;2023-03-14T06:02:34;9.27;;;3.40;;
71696;SDS011;68167;59.120;37.898;2023-03-14T06:05:08;5.73;;;3.43;;
71696;SDS011;68167;59.120;37.898;2023-03-14T06:07:35;6.60;;;3.30;;
71696;SDS011;68167;59.120;37.898;2023-03-14T06:10:04;5.37;;;2.80;;
71696;SDS011;68167;59.120;37.898;2023-03-14T06:12:32;6.80;;;3.17;;
71696;SDS011;68167;59.120;37.898;2023-03-14T06:14:58;7.03;;;3.67;;
71696;SDS011;68167;59.120;37.898;2023-03-14T06:17:24;9.10;;;3.53;;
71696;SDS011;68167;59.120;37.898;2023-03-14T06:19:59;10.30;;;3.77;;
71696;SDS011;68167;59.120;37.898;2023-03-14T06:22:26;6.73;;;3.50;;
71696;SDS011;68167;59.120;37.898;2023-03-14T06:24:55;9.23;;;4.00;;
71696;SDS011;68167;59.120;37.898;2023-03-14T06:27:23;11.13;;;3.90;;
71696;SDS011;68167;59.120;37.898;2023-03-14T06:29:53;7.67;;;4.87;;
71696;SDS011;68167;59.120;37.898;2023-03-14T06:32:19;11.17;;;5.37;;
71696;SDS011;68167;59.120;37.898;2023-03-14T06:34:52;11.63;;;5.40;;
71696;SDS011;68167;59.120;37.898;2023-03-14T06:37:19;9.60;;;4.00;;
71696;SDS011;68167;59.120;37.898;2023-03-14T06:39:47;11.17;;;4.57;;
71696;SDS011;68167;59.120;37.898;2023-03-14T06:42:22;9.47;;;4.60;;
71696;SDS011;68167;59.120;37.898;2023-03-14T06:44:50;10.07;;;5.67;;
71696;SDS011;68167;59.120;37.898;2023-03-14T06:47:16;14.37;;;5.63;;
71696;SDS011;68167;59.120;37.898;2023-03-14T06:49:44;15.60;;;7.03;;
71696;SDS011;68167;59.120;37.898;2023-03-14T06:52:12;13.87;;;6.67;;
71696;SDS011;68167;59.120;37.898;2023-03-14T06:54:38;16.07;;;8.60;;
71696;SDS011;68167;59.120;37.898;2023-03-14T06:57:05;12.53;;;7.10;;
71696;SDS011;68167;59.120;37.898;2023-03-14T06:59:31;15.63;;;7.53;;
71696;SDS011;68167;59.120;37.898;2023-03-14T07:01:57;33.47;;;7.83;;
71696;SDS011;68167;59.120;37.898;2023-03-14T07:04:24;16.73;;;7.03;;
71696;SDS011;68167;59.120;37.898;2023-03-14T07:06:50;18.17;;;7.83;;
71696;SDS011;68167;59.120;37.898;2023-03-14T07:09:16;12.13;;;6.00;;
71696;SDS011;68167;59.120;37.898;2023-03-14T07:11:49;12.23;;;7.17;;
71696;SDS011;68167;59.120;37.898;2023-03-14T07:14:16;11.73;;;6.93;;
71696;SDS011;68167;59.120;37.898;2023-03-14T07:16:43;13.60;;;7.03;;
71696;SDS011;68167;59.120;37.898;2023-03-14T07:19:11;15.87;;;5.83;;
71696;SDS011;68167;59.120;37.898;2023-03-14T07:21:37;14.10;;;5.87;;
71696;SDS011;68167;59.120;37.898;2023-03-14T07:24:07;11.43;;;6.20;;
71696;SDS011;68167;59.120;37.898;2023-03-14T07:26:34;9.53;;;5.90;;
71696;SDS011;68167;59.120;37.898;2023-03-14T07:29:00;11.27;;;6.33;;
71696;SDS011;68167;59.120;37.898;2023-03-14T07:31:29;10.77;;;5.90;;
71696;SDS011;68167;59.120;37.898;2023-03-14T07:33:56;9.43;;;5.83;;
71696;SDS011;68167;59.120;37.898;2023-03-14T07:36:24;10.17;;;5.57;;
71696;SDS011;68167;59.120;37.898;2023-03-14T07:38:50;9.20;;;5.43;;
71696;SDS011;68167;59.120;37.898;2023-03-14T07:41:49;10.90;;;4.73;;
71696;SDS011;68167;59.120;37.898;2023-03-14T07:44:39;9.70;;;5.37;;
71696;SDS011;68167;59.120;37.898;2023-03-14T07:47:05;10.90;;;5.40;;
71696;SDS011;68167;59.120;37.898;2023-03-14T07:49:31;9.07;;;6.00;;
71696;SDS011;68167;59.120;37.898;2023-03-14T07:51:58;10.10;;;5.80;;
71696;SDS011;68167;59.120;37.898;2023-03-14T07:54:24;9.83;;;4.73;;
71696;SDS011;68167;59.120;37.898;2023-03-14T07:56:51;10.90;;;4.57;;
71696;SDS011;68167;59.120;37.898;2023-03-14T07:59:18;8.63;;;5.40;;
71696;SDS011;68167;59.120;37.898;2023-03-14T08:01:44;8.27;;;5.23;;
71696;SDS011;68167;59.120;37.898;2023-03-14T08:04:11;8.80;;;5.30;;
71696;SDS011;68167;59.120;37.898;2023-03-14T08:06:37;6.70;;;4.83;;
71696;SDS011;68167;59.120;37.898;2023-03-14T08:09:04;12.13;;;5.40;;
71696;SDS011;68167;59.120;37.898;2023-03-14T08:11:30;8.07;;;5.03;;
71696;SDS011;68167;59.120;37.898;2023-03-14T08:13:56;7.77;;;4.87;;
71696;SDS011;68167;59.120;37.898;2023-03-14T08:16:23;7.10;;;4.77;;
71696;SDS011;68167;59.120;37.898;2023-03-14T08:18:50;7.60;;;5.10;;
71696;SDS011;68167;59.120;37.898;2023-03-14T08:21:16;7.97;;;5.07;;
71696;SDS011;68167;59.120;37.898;2023-03-14T08:23:42;7.17;;;4.50;;
71696;SDS011;68167;59.120;37.898;2023-03-14T08:26:09;7.07;;;4.40;;
71696;SDS011;68167;59.120;37.898;2023-03-14T08:28:35;6.90;;;4.60;;
71696;SDS011;68167;59.120;37.898;2023-03-14T08:31:01;6.03;;;4.40;;
71696;SDS011;68167;59.120;37.898;2023-03-14T08:33:28;6.63;;;4.13;;
71696;SDS011;68167;59.120;37.898;2023-03-14T08:35:58;9.57;;;5.30;;
71696;SDS011;68167;59.120;37.898;2023-03-14T08:38:28;5.93;;;4.17;;
71696;SDS011;68167;59.120;37.898;2023-03-14T08:41:01;6.20;;;4.70;;
71696;SDS011;68167;59.120;37.898;2023-03-14T08:44:18;8.63;;;4.90;;
71696;SDS011;68167;59.120;37.898;2023-03-14T08:47:01;6.63;;;4.40;;
71696;SDS011;68167;59.120;37.898;2023-03-14T08:49:28;6.07;;;4.03;;
71696;SDS011;68167;59.120;37.898;2023-03-14T08:51:54;7.13;;;4.93;;
71696;SDS011;68167;59.120;37.898;2023-03-14T08:54:23;6.20;;;4.67;;
71696;SDS011;68167;59.120;37.898;2023-03-14T08:56:56;6.90;;;4.93;;
71696;SDS011;68167;59.120;37.898;2023-03-14T08:59:23;7.60;;;4.57;;
71696;SDS011;68167;59.120;37.898;2023-03-14T09:01:50;8.10;;;5.10;;
71696;SDS011;68167;59.120;37.898;2023-03-14T09:04:16;7.23;;;4.87;;
71696;SDS011;68167;59.120;37.898;2023-03-14T09:06:42;6.90;;;5.30;;
71696;SDS011;68167;59.120;37.898;2023-03-14T09:09:09;8.27;;;5.40;;
71696;SDS011;68167;59.120;37.898;2023-03-14T09:11:35;6.73;;;4.93;;
71696;SDS011;68167;59.120;37.898;2023-03-14T09:14:01;8.93;;;5.40;;
71696;SDS011;68167;59.120;37.898;2023-03-14T09:16:28;9.40;;;5.70;;
71696;SDS011;68167;59.120;37.898;2023-03-14T09:18:54;7.17;;;5.30;;
71696;SDS011;68167;59.120;37.898;2023-03-14T09:21:23;7.97;;;5.20;;
71696;SDS011;68167;59.120;37.898;2023-03-14T09:23:49;6.60;;;4.97;;
71696;SDS011;68167;59.120;37.898;2023-03-14T09:26:15;7.67;;;5.07;;
71696;SDS011;68167;59.120;37.898;2023-03-14T09:28:41;7.37;;;4.73;;
71696;SDS011;68167;59.120;37.898;2023-03-14T09:31:09;6.43;;;5.30;;
71696;SDS011;68167;59.120;37.898;2023-03-14T09:33:36;9.40;;;5.83;;
71696;SDS011;68167;59.120;37.898;2023-03-14T09:36:04;7.37;;;4.80;;
71696;SDS011;68167;59.120;37.898;2023-03-14T09:38:31;8.23;;;4.97;;
71696;SDS011;68167;59.120;37.898;2023-03-14T09:41:01;8.80;;;6.20;;
71696;SDS011;68167;59.120;37.898;2023-03-14T09:43:36;7.63;;;5.30;;
71696;SDS011;68167;59.120;37.898;2023-03-14T09:46:02;9.80;;;5.63;;
71696;SDS011;68167;59.120;37.898;2023-03-14T09:48:30;8.77;;;5.77;;
71696;SDS011;68167;59.120;37.898;2023-03-14T09:51:03;7.63;;;5.17;;
71696;SDS011;68167;59.120;37.898;2023-03-14T09:53:39;6.87;;;5.37;;
71696;SDS011;68167;59.120;37.898;2023-03-14T09:56:15;8.47;;;5.67;;
71696;SDS011;68167;59.120;37.898;2023-03-14T09:58:46;9.27;;;5.90;;
71696;SDS011;68167;59.120;37.898;2023-03-14T10:01:18;9.60;;;6.40;;
71696;SDS011;68167;59.120;37.898;2023-03-14T10:03:48;10.73;;;5.87;;
71696;SDS011;68167;59.120;37.898;2023-03-14T10:06:18;7.03;;;5.10;;
71696;SDS011;68167;59.120;37.898;2023-03-14T10:08:45;9.17;;;5.80;;
71696;SDS011;68167;59.120;37.898;2023-03-14T10:11:13;7.10;;;5.50;;
71696;SDS011;68167;59.120;37.898;2023-03-14T10:14:02;7.90;;;5.87;;
71696;SDS011;68167;59.120;37.898;2023-03-14T10:16:32;6.70;;;5.03;;
71696;SDS011;68167;59.120;37.898;2023-03-14T10:19:05;6.13;;;5.00;;
71696;SDS011;68167;59.120;37.898;2023-03-14T10:21:37;8.67;;;5.87;;
71696;SDS011;68167;59.120;37.898;2023-03-14T10:24:21;8.80;;;6.00;;
71696;SDS011;68167;59.120;37.898;2023-03-14T10:27:04;8.73;;;6.13;;
71696;SDS011;68167;59.120;37.898;2023-03-14T10:29:32;8.70;;;6.23;;
71696;SDS011;68167;59.120;37.898;2023-03-14T10:32:01;7.73;;;5.47;;
71696;SDS011;68167;59.120;37.898;2023-03-14T10:34:30;8.93;;;5.63;;
71696;SDS011;68167;59.120;37.898;2023-03-14T10:37:14;7.83;;;5.97;;
71696;SDS011;68167;59.120;37.898;2023-03-14T10:39:47;9.63;;;6.03;;
71696;SDS011;68167;59.120;37.898;2023-03-14T10:44:43;7.90;;;6.47;;
71696;SDS011;68167;59.120;37.898;2023-03-14T10:47:15;11.53;;;7.00;;
71696;SDS011;68167;59.120;37.898;2023-03-14T10:49:45;10.60;;;7.13;;
71696;SDS011;68167;59.120;37.898;2023-03-14T10:52:18;12.43;;;6.63;;
71696;SDS011;68167;59.120;37.898;2023-03-14T10:54:59;12.40;;;6.53;;
71696;SDS011;68167;59.120;37.898;2023-03-14T10:57:29;8.43;;;6.53;;
71696;SDS011;68167;59.120;37.898;2023-03-14T10:59:55;9.30;;;7.07;;
71696;SDS011;68167;59.120;37.898;2023-03-14T11:05:08;11.20;;;6.80;;
71696;SDS011;68167;59.120;37.898;2023-03-14T11:07:43;13.07;;;6.20;;
71696;SDS011;68167;59.120;37.898;2023-03-14T11:10:26;9.83;;;6.30;;
71696;SDS011;68167;59.120;37.898;2023-03-14T11:19:02;8.80;;;6.10;;
71696;SDS011;68167;59.120;37.898;2023-03-14T11:21:55;8.80;;;6.00;;
71696;SDS011;68167;59.120;37.898;2023-03-14T11:27:21;7.90;;;5.53;;
71696;SDS011;68167;59.120;37.898;2023-03-14T11:36:09;9.13;;;5.97;;
71696;SDS011;68167;59.120;37.898;2023-03-14T11:41:35;6.27;;;5.13;;
71696;SDS011;68167;59.120;37.898;2023-03-14T11:44:23;8.03;;;5.20;;
71696;SDS011;68167;59.120;37.898;2023-03-14T11:47:09;7.60;;;5.83;;
71696;SDS011;68167;59.120;37.898;2023-03-14T11:49:48;7.77;;;5.53;;
71696;SDS011;68167;59.120;37.898;2023-03-14T11:52:21;8.70;;;6.37;;
71696;SDS011;68167;59.120;37.898;2023-03-14T11:54:55;7.03;;;5.00;;
71696;SDS011;68167;59.120;37.898;2023-03-14T11:57:28;6.80;;;5.43;;
71696;SDS011;68167;59.120;37.898;2023-03-14T12:00:02;7.00;;;5.43;;
71696;SDS011;68167;59.120;37.898;2023-03-14T12:13:32;7.30;;;5.53;;
71696;SDS011;68167;59.120;37.898;2023-03-14T12:16:04;7.93;;;5.90;;
71696;SDS011;68167;59.120;37.898;2023-03-14T12:18:36;6.47;;;5.43;;
71696;SDS011;68167;59.120;37.898;2023-03-14T12:21:08;7.17;;;5.47;;
71696;SDS011;68167;59.120;37.898;2023-03-14T12:23:40;6.97;;;5.80;;
71696;SDS011;68167;59.120;37.898;2023-03-14T12:44:49;6.47;;;5.20;;
71696;SDS011;68167;59.120;37.898;2023-03-14T12:49:46;8.13;;;4.27;;
71696;SDS011;68167;59.120;37.898;2023-03-14T13:00:17;5.10;;;4.10;;
71696;SDS011;68167;59.120;37.898;2023-03-14T13:02:46;5.73;;;4.53;;
71696;SDS011;68167;59.120;37.898;2023-03-14T13:13:29;8.30;;;4.90;;
71696;SDS011;68167;59.120;37.898;2023-03-14T13:15:43;7.50;;;5.23;;
71696;SDS011;68167;59.120;37.898;2023-03-14T13:18:18;5.40;;;4.40;;
71696;SDS011;68167;59.120;37.898;2023-03-14T13:21:15;6.63;;;4.37;;
71696;SDS011;68167;59.120;37.898;2023-03-14T13:26:22;4.43;;;4.03;;
71696;SDS011;68167;59.120;37.898;2023-03-14T13:28:50;6.90;;;4.67;;
71696;SDS011;68167;59.120;37.898;2023-03-14T13:31:21;7.20;;;4.57;;
71696;SDS011;68167;59.120;37.898;2023-03-14T13:33:59;7.03;;;5.00;;
71696;SDS011;68167;59.120;37.898;2023-03-14T13:36:33;7.57;;;4.30;;
71696;SDS011;68167;59.120;37.898;2023-03-14T13:39:01;8.93;;;4.70;;
71696;SDS011;68167;59.120;37.898;2023-03-14T13:41:30;6.83;;;5.10;;
71696;SDS011;68167;59.120;37.898;2023-03-14T13:43:58;6.67;;;4.53;;
71696;SDS011;68167;59.120;37.898;2023-03-14T13:46:29;7.33;;;5.07;;
71696;SDS011;68167;59.120;37.898;2023-03-14T13:49:01;5.97;;;4.37;;
71696;SDS011;68167;59.120;37.898;2023-03-14T13:51:29;10.10;;;7.27;;
71696;SDS011;68167;59.120;37.898;2023-03-14T13:54:00;7.13;;;5.23;;
71696;SDS011;68167;59.120;37.898;2023-03-14T13:56:30;7.30;;;5.10;;
71696;SDS011;68167;59.120;37.898;2023-03-14T13:58:57;8.33;;;5.10;;
71696;SDS011;68167;59.120;37.898;2023-03-14T14:01:31;6.77;;;5.47;;
71696;SDS011;68167;59.120;37.898;2023-03-14T14:04:14;6.93;;;5.20;;
71696;SDS011;68167;59.120;37.898;2023-03-14T14:06:46;8.37;;;5.37;;
71696;SDS011;68167;59.120;37.898;2023-03-14T14:09:16;6.63;;;5.07;;
71696;SDS011;68167;59.120;37.898;2023-03-14T14:14:21;8.17;;;5.80;;
71696;SDS011;68167;59.120;37.898;2023-03-14T14:17:05;8.13;;;5.53;;
71696;SDS011;68167;59.120;37.898;2023-03-14T14:19:35;9.60;;;6.00;;
71696;SDS011;68167;59.120;37.898;2023-03-14T14:22:03;9.10;;;5.37;;
71696;SDS011;68167;59.120;37.898;2023-03-14T14:24:31;8.47;;;5.83;;
71696;SDS011;68167;59.120;37.898;2023-03-14T14:26:59;7.67;;;5.33;;
71696;SDS011;68167;59.120;37.898;2023-03-14T14:29:28;7.53;;;5.80;;
71696;SDS011;68167;59.120;37.898;2023-03-14T14:32:10;12.47;;;6.27;;
71696;SDS011;68167;59.120;37.898;2023-03-14T14:37:42;11.07;;;5.47;;
71696;SDS011;68167;59.120;37.898;2023-03-14T14:40:09;9.80;;;5.60;;
71696;SDS011;68167;59.120;37.898;2023-03-14T14:42:42;9.60;;;5.97;;
71696;SDS011;68167;59.120;37.898;2023-03-14T14:45:17;7.23;;;5.60;;
71696;SDS011;68167;59.120;37.898;2023-03-14T14:47:52;7.97;;;5.67;;
71696;SDS011;68167;59.120;37.898;2023-03-14T14:50:32;8.20;;;5.90;;
71696;SDS011;68167;59.120;37.898;2023-03-14T14:53:03;9.00;;;6.40;;
71696;SDS011;68167;59.120;37.898;2023-03-14T14:55:51;9.73;;;5.70;;
71696;SDS011;68167;59.120;37.898;2023-03-14T14:58:27;9.87;;;6.33;;
71696;SDS011;68167;59.120;37.898;2023-03-14T15:01:30;10.70;;;6.30;;
71696;SDS011;68167;59.120;37.898;2023-03-14T15:03:50;8.80;;;5.43;;
71696;SDS011;68167;59.120;37.898;2023-03-14T15:06:18;8.27;;;5.70;;
71696;SDS011;68167;59.120;37.898;2023-03-14T15:08:46;10.47;;;5.63;;
71696;SDS011;68167;59.120;37.898;2023-03-14T15:11:21;11.60;;;5.70;;
71696;SDS011;68167;59.120;37.898;2023-03-14T15:13:50;10.13;;;5.97;;
71696;SDS011;68167;59.120;37.898;2023-03-14T15:16:17;7.67;;;5.70;;
71696;SDS011;68167;59.120;37.898;2023-03-14T15:18:47;8.73;;;5.90;;
71696;SDS011;68167;59.120;37.898;2023-03-14T15:21:19;7.53;;;5.20;;
71696;SDS011;68167;59.120;37.898;2023-03-14T15:23:45;8.33;;;5.57;;
71696;SDS011;68167;59.120;37.898;2023-03-14T15:26:16;10.23;;;6.67;;
71696;SDS011;68167;59.120;37.898;2023-03-14T15:28:44;7.13;;;5.27;;
71696;SDS011;68167;59.120;37.898;2023-03-14T15:31:14;8.13;;;6.13;;
71696;SDS011;68167;59.120;37.898;2023-03-14T15:33:44;9.53;;;6.00;;
71696;SDS011;68167;59.120;37.898;2023-03-14T15:36:22;10.60;;;5.53;;
71696;SDS011;68167;59.120;37.898;2023-03-14T15:38:59;7.00;;;5.60;;
71696;SDS011;68167;59.120;37.898;2023-03-14T15:41:26;7.17;;;5.40;;
71696;SDS011;68167;59.120;37.898;2023-03-14T15:43:54;8.00;;;5.33;;
71696;SDS011;68167;59.120;37.898;2023-03-14T15:46:21;7.23;;;5.60;;
71696;SDS011;68167;59.120;37.898;2023-03-14T15:48:48;7.83;;;5.30;;
71696;SDS011;68167;59.120;37.898;2023-03-14T15:51:16;9.13;;;5.83;;
71696;SDS011;68167;59.120;37.898;2023-03-14T15:53:43;10.83;;;6.27;;
71696;SDS011;68167;59.120;37.898;2023-03-14T15:56:16;8.80;;;5.63;;
71696;SDS011;68167;59.120;37.898;2023-03-14T15:58:44;9.73;;;5.83;;
71696;SDS011;68167;59.120;37.898;2023-03-14T16:01:16;8.53;;;6.17;;
71696;SDS011;68167;59.120;37.898;2023-03-14T16:03:43;8.10;;;6.13;;
71696;SDS011;68167;59.120;37.898;2023-03-14T16:06:10;10.13;;;5.87;;
71696;SDS011;68167;59.120;37.898;2023-03-14T16:08:37;12.33;;;6.50;;
71696;SDS011;68167;59.120;37.898;2023-03-14T16:11:03;8.60;;;6.03;;
71696;SDS011;68167;59.120;37.898;2023-03-14T16:13:30;8.73;;;5.67;;
71696;SDS011;68167;59.120;37.898;2023-03-14T16:15:58;7.73;;;5.90;;
71696;SDS011;68167;59.120;37.898;2023-03-14T16:18:30;10.53;;;5.83;;
71696;SDS011;68167;59.120;37.898;2023-03-14T16:20:59;7.37;;;5.63;;